Time;durP1;ratioP1;P1;durP2;ratioP2;P2;SDS_P1;SDS_P2;PMS_P1;PMS_P2;Temp;Humidity;BMP_temperature;BMP_pressure;BME280_temperature;BME280_humidity;BME280_pressure;Samples;Min_cycle;Max_cycle;Signal;HPM_P1;HPM_P2
2023/10/22 00:00:09;;;;;;;9.95;4.30;;;;;;;-144.73;100.00;54645.78;4846544;29;20041;-75
2023/10/22 00:02:38;;;;;;;14.05;5.05;;;;;;;-144.73;100.00;54651.97;4857530;29;20081;-75
2023/10/22 00:05:04;;;;;;;9.23;4.10;;;;;;;-144.73;100.00;54658.13;4858424;29;20033;-76
2023/10/22 00:07:30;;;;;;;13.05;4.35;;;;;;;-144.73;100.00;54670.44;4868463;29;20524;-76
2023/10/22 00:09:55;;;;;;;16.92;5.20;;;;;;;-144.73;100.00;54654.00;4853643;29;20113;-75
2023/10/22 00:12:20;;;;;;;14.70;3.85;;;;;;;-144.73;100.00;54621.16;4871195;29;20034;-75
2023/10/22 00:14:46;;;;;;;22.15;4.32;;;;;;;-144.73;100.00;54662.22;4851190;29;20096;-75
2023/10/22 00:17:11;;;;;;;13.27;4.45;;;;;;;-144.73;100.00;54637.59;4878095;29;20036;-75
2023/10/22 00:19:36;;;;;;;17.98;4.10;;;;;;;-144.73;100.00;54672.47;4857636;29;20049;-75
2023/10/22 00:22:02;;;;;;;9.75;3.92;;;;;;;-144.73;100.00;54723.81;4864667;29;20399;-75
2023/10/22 00:24:27;;;;;;;10.18;4.35;;;;;;;-144.73;100.00;54654.00;4873987;29;20033;-76
2023/10/22 00:26:52;;;;;;;11.82;4.03;;;;;;;-144.73;100.00;54625.28;4854238;29;20040;-75
2023/10/22 00:29:18;;;;;;;7.72;3.75;;;;;;;-144.73;100.00;54641.69;4870693;29;20041;-75
2023/10/22 00:31:43;;;;;;;12.75;3.50;;;;;;;-144.73;100.00;54662.22;4852676;29;20037;-75
2023/10/22 00:34:09;;;;;;;10.55;3.72;;;;;;;-144.73;100.00;54670.44;4853150;29;20117;-76
2023/10/22 00:36:34;;;;;;;14.52;3.80;;;;;;;-144.73;100.00;54656.06;4853561;29;20104;-74
2023/10/22 00:39:01;;;;;;;18.08;4.25;;;;;;;-144.73;100.00;54674.53;4859718;29;20041;-74
2023/10/22 00:41:26;;;;;;;12.35;3.75;;;;;;;-144.73;100.00;54637.59;4851232;29;20461;-75
2023/10/22 00:43:51;;;;;;;12.75;3.33;;;;;;;-144.73;100.00;54686.84;4865482;29;20125;-76
2023/10/22 00:46:22;;;;;;;11.02;3.92;;;;;;;-144.73;100.00;54670.44;4854683;29;20049;-75
2023/10/22 00:48:49;;;;;;;15.00;3.70;;;;;;;-144.73;100.00;54662.22;4874164;29;20041;-75
2023/10/22 00:51:15;;;;;;;15.55;4.20;;;;;;;-144.73;100.00;54633.47;4868814;29;20065;-75
2023/10/22 00:53:46;;;;;;;15.88;3.97;;;;;;;-144.73;100.00;54600.63;4859211;29;20108;-75
2023/10/22 00:56:12;;;;;;;13.52;3.78;;;;;;;-144.73;100.00;54699.16;4869304;29;20037;-75
2023/10/22 00:58:40;;;;;;;10.23;4.25;;;;;;;-144.73;100.00;54699.16;4860563;29;20087;-76
2023/10/22 01:01:07;;;;;;;18.27;4.75;;;;;;;-144.73;100.00;54629.38;4845071;29;20033;-75
2023/10/22 01:03:34;;;;;;;11.65;3.35;;;;;;;-144.73;100.00;54633.47;4860946;29;20040;-75
2023/10/22 01:06:02;;;;;;;16.25;3.60;;;;;;;-144.73;100.00;54621.16;4857335;29;20033;-75
2023/10/22 01:08:27;;;;;;;12.50;3.85;;;;;;;-144.73;100.00;54690.97;4854360;29;20550;-75
2023/10/22 01:11:03;;;;;;;7.88;3.55;;;;;;;-144.73;100.00;54654.00;4850883;29;20033;-75
2023/10/22 01:13:29;;;;;;;8.90;3.60;;;;;;;-144.73;100.00;54678.63;4864315;29;20040;-76
2023/10/22 01:15:55;;;;;;;14.40;3.75;;;;;;;-144.73;100.00;54658.13;4850698;29;20481;-76
2023/10/22 01:18:21;;;;;;;8.02;3.00;;;;;;;-144.73;100.00;54649.91;4868242;29;20077;-76
2023/10/22 01:20:46;;;;;;;10.10;3.20;;;;;;;-144.73;100.00;54680.69;4856996;29;20041;-76
2023/10/22 01:23:12;;;;;;;11.65;3.75;;;;;;;-144.73;100.00;54674.53;4851890;29;20423;-76
2023/10/22 01:25:37;;;;;;;9.05;3.30;;;;;;;-144.73;100.00;54670.44;4852667;29;20125;-76
2023/10/22 01:28:03;;;;;;;13.77;4.22;;;;;;;-144.73;100.00;54674.53;4852788;29;20089;-76
2023/10/22 01:30:29;;;;;;;6.68;3.22;;;;;;;-144.73;100.00;54645.78;4852523;29;20075;-75
2023/10/22 01:32:54;;;;;;;11.88;4.15;;;;;;;-144.73;100.00;54656.06;4851590;29;20065;-76
2023/10/22 01:35:19;;;;;;;11.80;3.60;;;;;;;-144.73;100.00;54649.91;4846954;29;20120;-76
2023/10/22 01:37:45;;;;;;;10.38;3.17;;;;;;;-144.73;100.00;54678.63;4859331;29;20037;-76
2023/10/22 01:40:11;;;;;;;9.70;3.03;;;;;;;-144.73;100.00;54645.78;4849125;29;20044;-76
2023/10/22 01:42:37;;;;;;;11.60;3.70;;;;;;;-144.73;100.00;54682.75;4847247;29;20123;-76
2023/10/22 01:45:03;;;;;;;12.10;3.53;;;;;;;-144.73;100.00;54674.53;4855664;29;20117;-76
2023/10/22 01:47:28;;;;;;;21.92;3.53;;;;;;;-144.73;100.00;54670.44;4859152;29;20036;-76
2023/10/22 01:49:53;;;;;;;10.05;3.10;;;;;;;-144.73;100.00;54641.69;4848776;29;20037;-77
2023/10/22 01:52:19;;;;;;;10.82;2.83;;;;;;;-144.73;100.00;54682.75;4851059;29;20060;-76
2023/10/22 01:54:44;;;;;;;7.75;3.17;;;;;;;-144.73;100.00;54678.63;4876486;29;20048;-77
2023/10/22 01:57:09;;;;;;;14.13;2.90;;;;;;;-144.73;100.00;54637.59;4856217;29;20032;-76
2023/10/22 01:59:35;;;;;;;8.73;2.67;;;;;;;-144.73;100.00;54617.06;4845528;29;20050;-76
2023/10/22 02:02:00;;;;;;;16.48;3.33;;;;;;;-144.73;100.00;54651.97;4850500;29;20385;-77
2023/10/22 02:04:29;;;;;;;9.90;3.35;;;;;;;-144.73;100.00;54658.13;4867739;29;20053;-76
2023/10/22 02:06:54;;;;;;;17.52;3.05;;;;;;;-144.73;100.00;54645.78;4861034;29;20037;-76
2023/10/22 02:09:20;;;;;;;7.35;3.22;;;;;;;-144.73;100.00;54662.22;4849165;29;20041;-76
2023/10/22 02:11:45;;;;;;;15.52;2.97;;;;;;;-144.73;100.00;54623.22;4848481;29;20032;-76
2023/10/22 02:14:11;;;;;;;12.98;2.65;;;;;;;-144.73;100.00;54658.13;4849830;29;20393;-77
2023/10/22 02:16:36;;;;;;;10.40;2.70;;;;;;;-144.73;100.00;54654.00;4867568;29;20540;-76
2023/10/22 02:19:01;;;;;;;11.38;2.97;;;;;;;-144.73;100.00;54703.28;4857593;29;20416;-76
2023/10/22 02:21:27;;;;;;;12.23;4.32;;;;;;;-144.73;100.00;54658.13;4855505;29;20041;-76
2023/10/22 02:23:53;;;;;;;10.02;2.83;;;;;;;-144.73;100.00;54645.78;4855304;29;20044;-76
2023/10/22 02:26:19;;;;;;;8.40;3.03;;;;;;;-144.73;100.00;54649.91;4852833;29;20033;-76
2023/10/22 02:28:44;;;;;;;11.85;3.35;;;;;;;-144.73;100.00;54637.59;4849752;29;20021;-76
2023/10/22 02:31:10;;;;;;;19.15;3.00;;;;;;;-144.73;100.00;54678.63;4854864;29;20025;-76
2023/10/22 02:33:38;;;;;;;15.93;4.07;;;;;;;-144.73;100.00;54690.97;4852372;29;20032;-77
2023/10/22 02:36:04;;;;;;;9.38;2.70;;;;;;;-144.73;100.00;54670.44;4863934;29;20053;-76
2023/10/22 02:38:29;;;;;;;11.70;3.25;;;;;;;-144.73;100.00;54690.97;4849456;29;20030;-76
2023/10/22 02:40:54;;;;;;;8.48;3.40;;;;;;;-144.73;100.00;54645.78;4849131;29;20021;-77
2023/10/22 02:43:20;;;;;;;6.40;3.00;;;;;;;-144.73;100.00;54686.84;4846270;29;20183;-76
2023/10/22 02:45:55;;;;;;;11.38;3.63;;;;;;;-144.73;100.00;54621.16;4872439;29;20041;-76
2023/10/22 02:48:21;;;;;;;10.70;3.25;;;;;;;-144.73;100.00;54647.84;4857375;29;20108;-76
2023/10/22 02:50:46;;;;;;;13.18;3.35;;;;;;;-144.73;100.00;54621.16;4869296;29;20033;-76
2023/10/22 02:53:13;;;;;;;12.68;3.10;;;;;;;-144.73;100.00;54641.69;4858315;29;20029;-77
2023/10/22 02:55:39;;;;;;;15.05;3.40;;;;;;;-144.73;100.00;54637.59;4852380;29;20100;-76
2023/10/22 02:58:04;;;;;;;15.23;3.65;;;;;;;-144.73;100.00;54645.78;4853748;29;20033;-77
2023/10/22 03:00:30;;;;;;;11.93;3.30;;;;;;;-144.73;100.00;54670.44;4859419;29;20050;-77
2023/10/22 03:02:55;;;;;;;8.82;3.33;;;;;;;-144.73;100.00;54674.53;4858905;29;20084;-76
2023/10/22 03:05:21;;;;;;;9.55;3.47;;;;;;;-144.73;100.00;54670.44;4876338;29;20060;-76
2023/10/22 03:07:46;;;;;;;9.85;3.20;;;;;;;-144.73;100.00;54645.78;4874710;29;20386;-77
2023/10/22 03:10:12;;;;;;;13.48;3.10;;;;;;;-144.73;100.00;54633.47;4865616;29;20034;-76
2023/10/22 03:12:37;;;;;;;15.18;3.92;;;;;;;-144.73;100.00;54639.63;4860746;29;20092;-77
2023/10/22 03:15:03;;;;;;;12.95;3.80;;;;;;;-144.73;100.00;54654.00;4871015;29;20045;-76
2023/10/22 03:17:29;;;;;;;14.40;4.13;;;;;;;-144.73;100.00;54682.75;4852731;29;20033;-76
2023/10/22 03:19:54;;;;;;;16.48;3.58;;;;;;;-144.73;100.00;54633.47;4852172;29;20037;-77
2023/10/22 03:22:20;;;;;;;10.68;3.13;;;;;;;-144.73;100.00;54697.13;4871974;29;20181;-77
2023/10/22 03:24:49;;;;;;;11.45;2.97;;;;;;;-144.73;100.00;54625.28;4855711;29;20397;-77
2023/10/22 03:27:14;;;;;;;17.08;3.50;;;;;;;-144.73;100.00;54678.63;4851603;29;20492;-76
2023/10/22 03:29:40;;;;;;;12.23;2.97;;;;;;;-144.73;100.00;54670.44;4858108;29;20037;-77
2023/10/22 03:32:08;;;;;;;8.88;3.30;;;;;;;-144.73;100.00;54639.63;4852023;29;20037;-76
2023/10/22 03:34:36;;;;;;;14.18;3.30;;;;;;;-144.73;100.00;54637.59;4848696;29;20034;-76
2023/10/22 03:37:04;;;;;;;10.40;2.80;;;;;;;-144.73;100.00;54678.63;4849672;29;20033;-77
2023/10/22 03:39:33;;;;;;;8.10;3.53;;;;;;;-144.73;100.00;54625.28;4859984;29;20109;-76
2023/10/22 03:41:59;;;;;;;10.35;2.80;;;;;;;-144.73;100.00;54651.97;4845500;29;20036;-77
2023/10/22 03:44:27;;;;;;;19.48;3.58;;;;;;;-144.73;100.00;54641.69;4856496;29;20116;-76
2023/10/22 03:46:52;;;;;;;22.20;3.30;;;;;;;-144.73;100.00;54639.63;4859230;29;20063;-77
2023/10/22 03:49:17;;;;;;;10.30;3.05;;;;;;;-144.73;100.00;54658.13;4851095;29;20057;-76
2023/10/22 03:51:43;;;;;;;12.70;3.40;;;;;;;-144.73;100.00;54690.97;4873796;29;20026;-76
2023/10/22 03:54:08;;;;;;;12.13;4.07;;;;;;;-144.73;100.00;54660.16;4851478;29;20100;-77
2023/10/22 03:56:36;;;;;;;19.13;3.47;;;;;;;-144.73;100.00;54670.44;4845729;29;20033;-76
2023/10/22 03:59:01;;;;;;;13.18;3.47;;;;;;;-144.73;100.00;54649.91;4847503;29;20041;-76
2023/10/22 04:01:29;;;;;;;7.72;2.63;;;;;;;-144.73;100.00;54649.91;4855504;29;20033;-76
2023/10/22 04:03:55;;;;;;;10.02;3.70;;;;;;;-144.73;100.00;54641.69;4869538;29;20128;-76
2023/10/22 04:06:20;;;;;;;16.33;3.45;;;;;;;-144.73;100.00;54672.47;4847785;29;20065;-76
2023/10/22 04:08:45;;;;;;;9.85;3.03;;;;;;;-144.73;100.00;54612.97;4856122;29;20041;-76
2023/10/22 04:11:11;;;;;;;6.72;3.25;;;;;;;-144.73;100.00;54674.53;4853806;29;20073;-76
2023/10/22 04:13:36;;;;;;;13.45;3.65;;;;;;;-144.73;100.00;54639.63;4854269;29;20036;-76
2023/10/22 04:16:02;;;;;;;14.27;3.20;;;;;;;-144.73;100.00;54682.75;4847987;29;20033;-77
2023/10/22 04:18:28;;;;;;;18.90;2.80;;;;;;;-144.73;100.00;54629.38;4849050;29;20124;-77
2023/10/22 04:20:53;;;;;;;7.07;2.30;;;;;;;-144.73;100.00;54690.97;4854941;29;20405;-77
2023/10/22 04:23:19;;;;;;;10.63;2.30;;;;;;;-144.73;100.00;54623.22;4852077;29;20025;-76
2023/10/22 04:25:45;;;;;;;14.23;2.92;;;;;;;-144.73;100.00;54686.84;4862644;29;20124;-77
2023/10/22 04:28:11;;;;;;;11.25;2.45;;;;;;;-144.73;100.00;54645.78;4860538;29;20021;-76
2023/10/22 04:30:38;;;;;;;11.02;2.70;;;;;;;-144.73;100.00;54625.28;4874999;29;20025;-76
2023/10/22 04:33:04;;;;;;;15.90;3.03;;;;;;;-144.73;100.00;54633.47;4854497;29;20432;-76
2023/10/22 04:35:32;;;;;;;5.90;2.53;;;;;;;-144.73;100.00;54670.44;4871236;29;20045;-76
2023/10/22 04:37:58;;;;;;;9.82;2.65;;;;;;;-144.73;100.00;54656.06;4855288;29;20041;-75
2023/10/22 04:40:26;;;;;;;9.80;2.28;;;;;;;-144.73;100.00;54643.75;4867208;29;20040;-75
2023/10/22 04:42:57;;;;;;;7.53;2.30;;;;;;;-144.73;100.00;54670.44;4853908;29;20025;-76
2023/10/22 04:45:23;;;;;;;10.45;2.63;;;;;;;-144.73;100.00;54670.44;4850454;29;20044;-76
2023/10/22 04:47:48;;;;;;;8.88;2.60;;;;;;;-144.73;100.00;54678.63;4868896;29;20033;-76
2023/10/22 04:50:14;;;;;;;6.80;2.72;;;;;;;-144.73;100.00;54678.63;4859495;29;20068;-76
2023/10/22 04:52:39;;;;;;;12.18;2.42;;;;;;;-144.73;100.00;54641.69;4859894;29;20037;-76
2023/10/22 04:55:11;;;;;;;9.32;2.15;;;;;;;-144.73;100.00;54617.06;4856688;29;20029;-76
2023/10/22 04:57:36;;;;;;;10.93;2.53;;;;;;;-144.73;100.00;54674.53;4855030;29;20025;-76
2023/10/22 05:00:02;;;;;;;4.70;1.95;;;;;;;-144.73;100.00;54617.06;4859690;29;20037;-76
2023/10/22 05:02:27;;;;;;;8.85;2.78;;;;;;;-144.73;100.00;54699.16;4866318;29;20033;-76
2023/10/22 05:15:17;;;;;;;7.80;2.30;;;;;;;-144.73;100.00;54658.13;5418501;23;20117;-77
2023/10/22 05:17:42;;;;;;;8.73;2.22;;;;;;;-144.73;100.00;54693.00;4845850;29;20041;-77
2023/10/22 05:20:08;;;;;;;7.47;2.38;;;;;;;-144.73;100.00;54670.44;4858394;29;20030;-75
2023/10/22 05:22:33;;;;;;;5.60;2.47;;;;;;;-144.73;100.00;54641.69;4860163;29;20034;-75
2023/10/22 05:24:59;;;;;;;10.32;2.40;;;;;;;-144.73;100.00;54641.69;4862043;29;20037;-76
2023/10/22 05:27:24;;;;;;;11.30;2.55;;;;;;;-144.73;100.00;54670.44;4852794;29;20017;-76
2023/10/22 05:29:50;;;;;;;11.85;2.30;;;;;;;-144.73;100.00;54637.59;4846852;29;20042;-75
2023/10/22 05:32:15;;;;;;;11.35;2.50;;;;;;;-144.73;100.00;54649.91;4846328;29;20025;-76
2023/10/22 05:34:44;;;;;;;7.07;1.90;;;;;;;-144.73;100.00;54625.28;4860668;29;20029;-76
2023/10/22 05:37:10;;;;;;;10.55;2.17;;;;;;;-144.73;100.00;54649.91;4868882;29;20033;-76
2023/10/22 05:39:36;;;;;;;13.75;2.22;;;;;;;-144.73;100.00;54695.06;4874859;29;20041;-76
2023/10/22 05:42:06;;;;;;;7.45;2.13;;;;;;;-144.73;100.00;54658.13;4855028;29;20044;-77
2023/10/22 05:44:35;;;;;;;11.18;2.17;;;;;;;-144.73;100.00;54674.53;4851641;29;20044;-76
2023/10/22 05:47:00;;;;;;;8.43;2.05;;;;;;;-144.73;100.00;54674.53;4849942;29;20028;-76
2023/10/22 05:49:26;;;;;;;15.75;2.00;;;;;;;-144.73;100.00;54670.44;4853638;29;20025;-76
2023/10/22 05:51:51;;;;;;;9.93;2.60;;;;;;;-144.73;100.00;54670.44;4851535;29;20034;-76
2023/10/22 05:54:17;;;;;;;9.18;1.88;;;;;;;-144.73;100.00;54637.59;4857236;29;20060;-76
2023/10/22 05:56:45;;;;;;;10.63;2.65;;;;;;;-144.73;100.00;54674.53;4867211;29;20029;-76
2023/10/22 05:59:10;;;;;;;13.73;2.30;;;;;;;-144.73;100.00;54658.13;4860790;29;20038;-76
2023/10/22 06:01:38;;;;;;;7.82;2.45;;;;;;;-144.73;100.00;54649.91;4866669;29;20102;-76
2023/10/22 06:04:08;;;;;;;10.32;2.15;;;;;;;-144.73;100.00;54645.78;4844831;29;20101;-76
2023/10/22 06:06:34;;;;;;;9.52;2.05;;;;;;;-144.73;100.00;54670.44;4872710;29;20101;-76
2023/10/22 06:08:59;;;;;;;18.40;2.47;;;;;;;-144.73;100.00;54670.44;4867820;29;20121;-76
2023/10/22 06:11:24;;;;;;;8.43;2.25;;;;;;;-144.73;100.00;54641.69;4869229;29;20030;-76
2023/10/22 06:13:50;;;;;;;7.85;2.05;;;;;;;-144.73;100.00;54699.16;4857309;29;20143;-76
2023/10/22 06:16:15;;;;;;;12.15;2.65;;;;;;;-144.73;100.00;54608.84;4850924;29;20311;-76
2023/10/22 06:18:41;;;;;;;7.63;1.85;;;;;;;-144.73;100.00;54680.69;4875661;29;20058;-76
2023/10/22 06:21:13;;;;;;;4.72;1.80;;;;;;;-144.73;100.00;54637.59;4855054;29;20056;-76
2023/10/22 06:23:39;;;;;;;8.23;2.58;;;;;;;-144.73;100.00;54658.13;4854389;29;20116;-76
2023/10/22 06:26:04;;;;;;;8.55;1.75;;;;;;;-144.73;100.00;54695.06;4873213;29;20096;-76
2023/10/22 06:28:30;;;;;;;6.85;2.08;;;;;;;-144.73;100.00;54662.22;4850551;29;20482;-75
2023/10/22 06:31:12;;;;;;;12.02;2.38;;;;;;;-144.73;100.00;54637.59;4847594;29;20017;-75
2023/10/22 06:33:38;;;;;;;12.23;2.55;;;;;;;-144.73;100.00;54662.22;4851364;29;20489;-76
2023/10/22 06:36:18;;;;;;;14.10;1.90;;;;;;;-144.73;100.00;54662.22;4855875;29;20366;-76
2023/10/22 06:38:45;;;;;;;16.15;2.00;;;;;;;-144.73;100.00;54641.69;4866237;29;20025;-76
2023/10/22 06:41:20;;;;;;;12.57;2.15;;;;;;;-144.73;100.00;54695.06;4848629;29;20042;-76
2023/10/22 06:43:45;;;;;;;8.50;2.25;;;;;;;-144.73;100.00;54645.78;4877091;29;20045;-75
2023/10/22 06:46:11;;;;;;;6.70;2.05;;;;;;;-144.73;100.00;54649.91;4875108;29;20098;-75
2023/10/22 06:48:37;;;;;;;5.20;1.92;;;;;;;-144.73;100.00;54654.00;4857819;29;20090;-75
2023/10/22 06:51:03;;;;;;;15.88;2.15;;;;;;;-144.73;100.00;54649.91;4849133;29;20025;-75
2023/10/22 06:53:30;;;;;;;7.47;2.35;;;;;;;-144.73;100.00;54682.75;4846284;29;20044;-75
2023/10/22 06:55:56;;;;;;;7.70;1.90;;;;;;;-144.73;100.00;54678.63;4849300;29;20025;-75
2023/10/22 06:58:21;;;;;;;10.05;1.80;;;;;;;-144.73;100.00;54637.59;4867799;29;20135;-75
2023/10/22 07:00:47;;;;;;;11.93;1.90;;;;;;;-144.73;100.00;54678.63;4855367;29;20068;-75
2023/10/22 07:03:12;;;;;;;7.05;1.92;;;;;;;-144.73;100.00;54612.97;4848083;29;20030;-75
2023/10/22 07:05:37;;;;;;;7.45;1.98;;;;;;;-144.73;100.00;54662.22;4857142;29;20034;-76
2023/10/22 07:08:03;;;;;;;14.85;2.30;;;;;;;-144.73;100.00;54641.69;4871654;29;20029;-75
2023/10/22 07:10:29;;;;;;;12.95;2.47;;;;;;;-144.73;100.00;54660.16;4856390;29;20029;-73
2023/10/22 07:12:54;;;;;;;9.18;2.22;;;;;;;-144.73;100.00;54643.75;4855364;29;20037;-72
2023/10/22 07:15:21;;;;;;;5.03;1.75;;;;;;;-144.73;100.00;54631.44;4869350;29;20038;-74
2023/10/22 07:17:48;;;;;;;13.25;2.20;;;;;;;-144.73;100.00;54617.06;4858205;29;20025;-73
2023/10/22 07:20:13;;;;;;;12.57;2.33;;;;;;;-144.73;100.00;54682.75;4842950;29;20045;-72
2023/10/22 07:22:38;;;;;;;5.70;1.92;;;;;;;-144.73;100.00;54690.97;4846906;29;20048;-73
2023/10/22 07:30:07;;;;;;;8.68;2.00;;;;;;;-144.73;100.00;54645.78;4853208;29;20033;-72
2023/10/22 07:32:32;;;;;;;12.15;2.08;;;;;;;-144.73;100.00;54649.91;4862882;29;20034;-71
2023/10/22 07:34:58;;;;;;;10.05;2.13;;;;;;;-144.73;100.00;54625.28;4856598;29;20044;-72
2023/10/22 07:37:23;;;;;;;16.00;2.20;;;;;;;-144.73;100.00;54656.06;4850626;29;20055;-74
2023/10/22 07:39:48;;;;;;;15.45;1.95;;;;;;;-144.73;100.00;54662.22;4825341;29;20049;-73
2023/10/22 07:42:14;;;;;;;10.77;1.80;;;;;;;-144.73;100.00;54645.78;4822792;29;20029;-74
2023/10/22 07:44:39;;;;;;;10.35;2.22;;;;;;;-144.73;100.00;54707.38;4839187;29;20169;-71
2023/10/22 07:47:05;;;;;;;13.07;2.70;;;;;;;-144.73;100.00;54658.13;4848021;29;20041;-69
2023/10/22 07:49:30;;;;;;;8.75;2.20;;;;;;;-144.73;100.00;54670.44;4825746;29;20050;-72
2023/10/22 07:51:55;;;;;;;9.50;2.47;;;;;;;-144.73;100.00;54643.75;4841215;29;20036;-72
2023/10/22 07:54:21;;;;;;;8.35;2.40;;;;;;;-144.73;100.00;54662.22;4826505;29;20045;-71
2023/10/22 07:56:46;;;;;;;8.15;2.55;;;;;;;-144.73;100.00;54645.78;4840411;29;20086;-71
2023/10/22 07:59:12;;;;;;;11.02;1.83;;;;;;;-144.73;100.00;54592.44;4826785;29;20050;-71
2023/10/22 08:01:38;;;;;;;7.57;2.05;;;;;;;-144.73;100.00;54658.13;4826072;29;20100;-71
2023/10/22 08:04:07;;;;;;;7.20;1.90;;;;;;;-144.73;100.00;54649.91;4835094;29;20046;-72
2023/10/22 08:06:35;;;;;;;8.98;2.22;;;;;;;-144.73;100.00;54621.16;4841727;29;20046;-71
2023/10/22 08:09:00;;;;;;;11.13;2.42;;;;;;;-144.73;100.00;54617.06;4837921;29;20049;-72
2023/10/22 08:11:25;;;;;;;4.25;1.90;;;;;;;-144.73;100.00;54695.06;4819738;29;20030;-72
2023/10/22 08:13:51;;;;;;;13.50;2.13;;;;;;;-144.73;100.00;54654.00;4838014;29;20098;-71
2023/10/22 08:16:17;;;;;;;10.50;1.85;;;;;;;-144.73;100.00;54658.13;4836313;29;20034;-72
2023/10/22 08:18:43;;;;;;;7.72;2.15;;;;;;;-144.73;100.00;54647.84;4839908;29;20065;-72
2023/10/22 08:21:09;;;;;;;4.93;1.73;;;;;;;-144.73;100.00;54612.97;4841471;29;20034;-72
2023/10/22 08:23:34;;;;;;;8.48;1.90;;;;;;;-144.73;100.00;54670.44;4838713;29;20055;-70
2023/10/22 08:26:00;;;;;;;15.23;2.53;;;;;;;-144.73;100.00;54647.84;4839409;29;20029;-73
2023/10/22 08:28:25;;;;;;;5.50;1.85;;;;;;;-144.73;100.00;54645.78;4836373;29;20026;-72
2023/10/22 08:30:50;;;;;;;9.23;2.28;;;;;;;-144.73;100.00;54645.78;4821836;29;20046;-72
2023/10/22 08:33:17;;;;;;;8.02;2.20;;;;;;;-144.73;100.00;54621.16;4820451;29;20053;-72
2023/10/22 08:35:42;;;;;;;7.55;2.33;;;;;;;-144.73;100.00;54658.13;4806700;29;20046;-72
2023/10/22 08:38:08;;;;;;;11.70;2.05;;;;;;;-144.73;100.00;54654.00;4845086;29;20033;-73
2023/10/22 08:40:37;;;;;;;13.20;1.90;;;;;;;-144.73;100.00;54670.44;4817685;29;20061;-72
2023/10/22 08:43:18;;;;;;;10.20;2.15;;;;;;;-144.73;100.00;54645.78;4838284;29;20083;-72
2023/10/22 08:45:50;;;;;;;15.18;4.18;;;;;;;-144.73;100.00;54617.06;4840209;29;20057;-72
2023/10/22 08:48:17;;;;;;;6.18;2.05;;;;;;;-144.73;100.00;54621.16;4824815;29;20085;-71
2023/10/22 08:50:46;;;;;;;5.72;1.90;;;;;;;-144.73;100.00;54633.47;4841916;29;20045;-73
2023/10/22 08:53:34;;;;;;;16.50;2.75;;;;;;;-144.73;100.00;54660.16;4846444;29;20112;-71
2023/10/22 08:56:01;;;;;;;8.45;1.70;;;;;;;-144.73;100.00;54670.44;4824481;29;20114;-70
2023/10/22 08:58:36;;;;;;;11.93;2.08;;;;;;;-144.73;100.00;54703.28;4838460;29;20385;-71
2023/10/22 09:01:07;;;;;;;13.18;2.20;;;;;;;-144.73;100.00;54600.63;4842271;29;20049;-71
2023/10/22 09:03:33;;;;;;;15.00;2.92;;;;;;;-144.73;100.00;54654.00;4825237;29;20055;-72
2023/10/22 09:06:01;;;;;;;6.90;2.15;;;;;;;-144.73;100.00;54670.44;4825679;29;20037;-71
2023/10/22 09:09:00;;;;;;;8.52;1.83;;;;;;;-144.73;100.00;54658.13;4813818;29;20065;-72
2023/10/22 09:11:26;;;;;;;5.75;1.70;;;;;;;-144.73;100.00;54629.38;4824643;29;20030;-73
2023/10/22 09:14:48;;;;;;;6.32;1.85;;;;;;;-144.73;100.00;54637.59;4821514;29;20026;-71
2023/10/22 09:19:49;;;;;;;6.70;2.65;;;;;;;-144.73;100.00;54662.22;4970654;23;20060;-70
2023/10/22 09:22:29;;;;;;;15.32;1.80;;;;;;;-144.73;100.00;54660.16;4845696;29;20028;-72
2023/10/22 09:25:03;;;;;;;9.80;1.75;;;;;;;-144.73;100.00;54662.22;4855553;29;20073;-71
2023/10/22 09:30:40;;;;;;;13.45;1.50;;;;;;;-144.73;100.00;54617.06;4844081;29;20151;-69
2023/10/22 09:33:11;;;;;;;7.72;1.83;;;;;;;-144.73;100.00;54612.97;4848859;29;20025;-70
2023/10/22 09:35:37;;;;;;;6.22;1.67;;;;;;;-144.73;100.00;54635.53;4842637;29;20034;-70
2023/10/22 09:38:03;;;;;;;11.13;1.65;;;;;;;-144.73;100.00;54625.28;4837435;29;20030;-71
2023/10/22 09:40:33;;;;;;;4.20;1.30;;;;;;;-144.73;100.00;54637.59;4843802;29;20037;-70
2023/10/22 09:43:02;;;;;;;3.70;1.35;;;;;;;-144.73;100.00;54629.38;4843540;29;20040;-70
2023/10/22 09:45:31;;;;;;;14.32;1.95;;;;;;;-144.73;100.00;54633.47;4841348;29;20053;-72
2023/10/22 09:48:06;;;;;;;7.55;1.85;;;;;;;-144.73;100.00;54617.06;4839824;29;20081;-72
2023/10/22 09:51:20;;;;;;;7.40;1.52;;;;;;;-144.73;100.00;54654.00;4856244;29;20033;-70
2023/10/22 09:53:53;;;;;;;9.45;1.80;;;;;;;-144.73;100.00;54637.59;4838888;29;20045;-72
2023/10/22 09:59:11;;;;;;;11.90;2.38;;;;;;;-144.73;100.00;54637.59;4830282;29;20054;-72
2023/10/22 10:01:37;;;;;;;15.15;2.00;;;;;;;-144.73;100.00;54654.00;4836758;29;20066;-71
2023/10/22 10:04:05;;;;;;;7.25;2.35;;;;;;;-144.73;100.00;54662.22;4839242;29;20132;-72
2023/10/22 10:06:31;;;;;;;11.60;2.55;;;;;;;-144.73;100.00;54641.69;4840707;29;20072;-70
2023/10/22 10:08:58;;;;;;;8.90;1.92;;;;;;;-144.73;100.00;54639.63;4840269;29;20054;-72
2023/10/22 10:11:25;;;;;;;10.35;2.65;;;;;;;-144.73;100.00;54633.47;4844229;29;20025;-72
2023/10/22 10:13:50;;;;;;;14.13;2.20;;;;;;;-144.73;100.00;54621.16;4826239;29;20046;-71
2023/10/22 10:16:16;;;;;;;13.77;2.92;;;;;;;-144.73;100.00;54670.44;4837700;29;20038;-72
2023/10/22 10:19:01;;;;;;;11.85;2.80;;;;;;;-144.73;100.00;54645.78;4824629;29;20054;-71
2023/10/22 10:21:39;;;;;;;9.93;3.35;;;;;;;-144.73;100.00;54662.22;4828564;29;20037;-71
2023/10/22 10:24:25;;;;;;;11.50;3.35;;;;;;;-144.73;100.00;54645.78;4837834;29;20045;-72
2023/10/22 10:26:56;;;;;;;9.90;2.70;;;;;;;-144.73;100.00;54678.63;4819395;29;20062;-72
2023/10/22 10:29:24;;;;;;;9.95;3.35;;;;;;;-144.73;100.00;54629.38;4841959;29;20038;-72
2023/10/22 10:31:51;;;;;;;7.82;2.70;;;;;;;-144.73;100.00;54604.75;4841211;29;20033;-73
2023/10/22 10:34:34;;;;;;;8.48;3.40;;;;;;;-144.73;100.00;54695.06;4838845;29;20042;-73
2023/10/22 10:37:18;;;;;;;11.20;2.60;;;;;;;-144.73;100.00;54633.47;4839523;29;20033;-73
2023/10/22 10:40:04;;;;;;;9.82;2.95;;;;;;;-144.73;100.00;54670.44;4827345;29;20038;-72
2023/10/22 10:42:29;;;;;;;14.32;2.85;;;;;;;-144.73;100.00;54629.38;4841762;29;20050;-71
2023/10/22 10:44:57;;;;;;;9.18;3.55;;;;;;;-144.73;100.00;54612.97;4842485;29;20038;-72
2023/10/22 10:47:29;;;;;;;9.40;2.40;;;;;;;-144.73;100.00;54658.13;4837220;29;20036;-72
2023/10/22 10:50:07;;;;;;;7.47;2.92;;;;;;;-144.73;100.00;54670.44;4840023;29;20045;-73
2023/10/22 10:52:48;;;;;;;11.60;2.85;;;;;;;-144.73;100.00;54625.28;4840051;29;20038;-72
2023/10/22 10:55:19;;;;;;;11.77;3.60;;;;;;;-144.73;100.00;54703.28;4839180;29;20423;-70
2023/10/22 10:57:50;;;;;;;9.95;2.30;;;;;;;-144.73;100.00;54625.28;4839812;29;20097;-72
2023/10/22 11:00:20;;;;;;;4.40;1.75;;;;;;;-144.73;100.00;54670.44;4840587;29;20038;-72
2023/10/22 11:02:47;;;;;;;8.13;2.63;;;;;;;-144.73;100.00;54637.59;4844504;29;20037;-71
2023/10/22 11:05:14;;;;;;;5.80;2.10;;;;;;;-144.73;100.00;54635.53;4818516;29;20046;-72
2023/10/22 11:07:44;;;;;;;6.45;2.20;;;;;;;-144.73;100.00;54674.53;4826101;29;20030;-72
2023/10/22 11:10:14;;;;;;;6.45;1.65;;;;;;;-144.73;100.00;54670.44;4836993;29;20034;-73
2023/10/22 11:12:41;;;;;;;9.18;2.20;;;;;;;-144.73;100.00;54641.69;4828035;29;20052;-72
2023/10/22 11:15:10;;;;;;;4.55;2.17;;;;;;;-144.73;100.00;54672.47;4844446;29;20045;-71
2023/10/22 11:17:38;;;;;;;12.05;2.20;;;;;;;-144.73;100.00;54654.00;4834489;29;20030;-73
2023/10/22 11:20:04;;;;;;;11.18;2.30;;;;;;;-144.73;100.00;54641.69;4822061;29;20038;-74
2023/10/22 11:22:31;;;;;;;7.50;2.03;;;;;;;-144.73;100.00;54647.84;4837577;29;20396;-73
2023/10/22 11:24:59;;;;;;;3.55;1.77;;;;;;;-144.73;100.00;54649.91;4820922;29;20042;-73
2023/10/22 11:27:25;;;;;;;6.30;1.75;;;;;;;-144.73;100.00;54654.00;4820966;29;20025;-73
2023/10/22 11:29:51;;;;;;;4.05;1.75;;;;;;;-144.73;100.00;54639.63;4822400;29;20061;-73